Time;durP1;ratioP1;P1;durP2;ratioP2;P2;SDS_P1;SDS_P2;PMS_P1;PMS_P2;Temp;Humidity;BMP_temperature;BMP_pressure;BME280_temperature;BME280_humidity;BME280_pressure;Samples;Min_cycle;Max_cycle;Signal;HPM_P1;HPM_P2
2022/04/05 00:00:00;;;;;;;11.87;6.83;;;8.10;99.90;;;;;;5041547;28;20975;-67
2022/04/05 00:02:25;;;;;;;8.70;7.80;;;8.10;99.90;;;;;;5041381;28;20275;-67
2022/04/05 00:04:51;;;;;;;7.80;6.97;;;8.10;99.90;;;;;;5035663;28;20275;-67
2022/04/05 00:07:17;;;;;;;8.40;6.80;;;8.10;99.90;;;;;;5043004;28;20180;-67
2022/04/05 00:09:43;;;;;;;8.97;7.87;;;8.00;99.90;;;;;;5040650;28;20195;-68
2022/04/05 00:12:09;;;;;;;5.83;5.23;;;8.00;99.90;;;;;;5042382;28;20442;-67
2022/04/05 00:14:34;;;;;;;14.63;7.93;;;8.00;99.90;;;;;;5037865;28;20195;-67
2022/04/05 00:17:02;;;;;;;8.80;7.80;;;8.10;99.90;;;;;;5039679;28;20454;-67
2022/04/05 00:19:28;;;;;;;8.57;7.57;;;8.00;99.90;;;;;;5040754;28;20211;-67
2022/04/05 00:21:54;;;;;;;9.83;7.80;;;8.10;99.90;;;;;;5037928;28;20443;-68
2022/04/05 00:24:20;;;;;;;9.87;6.97;;;8.00;99.90;;;;;;5040909;28;20184;-67
2022/04/05 00:26:46;;;;;;;13.40;7.90;;;8.10;99.90;;;;;;5040129;28;20274;-67
2022/04/05 00:29:12;;;;;;;9.10;7.33;;;8.00;99.90;;;;;;5040393;28;20466;-67
2022/04/05 00:31:37;;;;;;;9.10;7.17;;;8.00;99.90;;;;;;5041529;28;20438;-68
2022/04/05 00:34:04;;;;;;;9.00;8.10;;;8.00;99.90;;;;;;5042224;28;20251;-68
2022/04/05 00:36:29;;;;;;;8.40;7.50;;;8.00;99.90;;;;;;5040649;28;20657;-68
2022/04/05 00:38:55;;;;;;;12.60;7.90;;;8.00;99.90;;;;;;5041479;28;20473;-69
2022/04/05 00:41:20;;;;;;;8.50;7.50;;;8.00;99.90;;;;;;5039702;28;20179;-68
2022/04/05 00:43:46;;;;;;;9.23;7.40;;;8.00;99.90;;;;;;5040351;28;20667;-69
2022/04/05 00:46:12;;;;;;;11.00;7.53;;;8.00;99.90;;;;;;5041572;28;20675;-69
2022/04/05 00:48:49;;;;;;;9.13;7.90;;;8.10;99.90;;;;;;5043212;28;20211;-68
2022/04/05 00:51:16;;;;;;;13.93;8.10;;;8.00;99.90;;;;;;5041109;28;20202;-69
2022/04/05 00:53:47;;;;;;;11.50;7.53;;;8.00;99.90;;;;;;5039703;28;20464;-68
2022/04/05 00:56:17;;;;;;;8.23;7.23;;;8.00;99.90;;;;;;5042252;28;20508;-69
2022/04/05 00:58:47;;;;;;;11.20;9.03;;;8.00;99.90;;;;;;5041073;28;20469;-68
2022/04/05 01:01:16;;;;;;;8.17;6.70;;;8.00;99.90;;;;;;5039667;28;20430;-68
2022/04/05 01:03:50;;;;;;;7.10;5.83;;;8.00;99.90;;;;;;5039505;28;20440;-68
2022/04/05 01:06:22;;;;;;;7.83;6.37;;;8.00;99.90;;;;;;5039864;28;20842;-68
2022/04/05 01:08:49;;;;;;;7.77;6.97;;;8.00;99.90;;;;;;5039116;28;20476;-67
2022/04/05 01:11:15;;;;;;;8.80;6.90;;;8.00;99.90;;;;;;5042554;28;20462;-67
2022/04/05 01:13:41;;;;;;;9.73;6.77;;;8.00;99.90;;;;;;5038762;28;20470;-67
2022/04/05 01:16:07;;;;;;;8.57;7.67;;;7.90;99.90;;;;;;5037300;28;20200;-67
2022/04/05 01:18:34;;;;;;;9.33;7.20;;;8.00;99.90;;;;;;5040076;28;20822;-68
2022/04/05 01:21:00;;;;;;;7.90;6.83;;;8.00;99.90;;;;;;5040416;28;20524;-67
2022/04/05 01:23:28;;;;;;;8.87;7.70;;;7.90;99.90;;;;;;5040802;28;20552;-66
2022/04/05 01:25:55;;;;;;;8.40;6.57;;;8.00;99.90;;;;;;5056342;28;20995;-67
2022/04/05 01:28:20;;;;;;;8.27;7.40;;;7.90;99.90;;;;;;5038830;28;20457;-68
2022/04/05 01:30:46;;;;;;;6.70;6.00;;;7.90;99.90;;;;;;5041152;28;20442;-69
2022/04/05 01:33:12;;;;;;;7.83;7.03;;;7.90;99.90;;;;;;5038818;28;20266;-69
2022/04/05 01:35:39;;;;;;;9.10;6.83;;;7.90;99.90;;;;;;5040805;28;20180;-68
2022/04/05 01:38:07;;;;;;;8.43;6.40;;;7.80;99.90;;;;;;5038213;28;20467;-68
2022/04/05 01:40:32;;;;;;;17.20;7.80;;;7.80;99.90;;;;;;5041313;28;20487;-68
2022/04/05 01:42:58;;;;;;;9.30;7.47;;;7.70;99.90;;;;;;5040452;28;20443;-68
2022/04/05 01:45:24;;;;;;;8.47;6.50;;;7.70;99.90;;;;;;5037578;28;20183;-69
2022/04/05 01:47:50;;;;;;;10.33;6.80;;;7.70;99.90;;;;;;5038598;28;20614;-69
2022/04/05 01:50:15;;;;;;;8.00;7.00;;;7.80;99.90;;;;;;5036410;28;20572;-69
2022/04/05 01:52:41;;;;;;;8.40;7.50;;;7.70;99.90;;;;;;5038756;28;20187;-69
2022/04/05 01:55:07;;;;;;;11.23;7.77;;;7.80;99.90;;;;;;5037448;28;20189;-69
2022/04/05 01:57:33;;;;;;;9.40;6.07;;;7.70;99.90;;;;;;5041722;28;20223;-68
2022/04/05 01:59:58;;;;;;;7.60;6.80;;;7.70;99.90;;;;;;5045435;28;21120;-68
2022/04/05 02:02:24;;;;;;;10.00;7.37;;;7.80;99.90;;;;;;5042306;28;20210;-68
2022/04/05 02:04:50;;;;;;;11.60;7.50;;;7.70;99.90;;;;;;5045868;28;20233;-68
2022/04/05 02:07:18;;;;;;;8.30;7.37;;;7.70;99.90;;;;;;5044162;28;20180;-68
2022/04/05 02:09:44;;;;;;;7.47;6.53;;;7.80;99.90;;;;;;5046909;28;20552;-68
2022/04/05 02:12:11;;;;;;;10.77;6.70;;;7.80;99.90;;;;;;5041213;28;20442;-68
2022/04/05 02:14:37;;;;;;;10.57;7.33;;;7.80;99.90;;;;;;5043402;28;20483;-67
2022/04/05 02:17:07;;;;;;;8.33;6.93;;;7.80;99.90;;;;;;5043439;28;20454;-67
2022/04/05 02:19:34;;;;;;;10.87;6.70;;;7.80;99.90;;;;;;5038816;28;20465;-67
2022/04/05 02:22:00;;;;;;;11.20;7.47;;;7.80;99.90;;;;;;5041079;28;20443;-67
2022/04/05 02:24:25;;;;;;;7.93;7.17;;;7.80;99.90;;;;;;5043444;28;20442;-68
2022/04/05 02:26:51;;;;;;;11.33;8.23;;;7.90;99.90;;;;;;5041338;28;20522;-69
2022/04/05 02:29:17;;;;;;;9.07;7.03;;;7.80;99.90;;;;;;5043064;28;20588;-68
2022/04/05 02:31:43;;;;;;;7.37;6.40;;;7.80;99.90;;;;;;5044726;28;20445;-68
2022/04/05 02:34:09;;;;;;;8.73;6.23;;;7.80;99.90;;;;;;5045000;28;20706;-68
2022/04/05 02:36:35;;;;;;;7.73;6.30;;;7.80;99.90;;;;;;5043288;28;20187;-68
2022/04/05 02:39:01;;;;;;;8.07;7.27;;;7.70;99.90;;;;;;5042473;28;20473;-69
2022/04/05 02:41:27;;;;;;;7.93;7.13;;;7.70;99.90;;;;;;5037363;28;20741;-69
2022/04/05 02:43:53;;;;;;;6.77;5.60;;;7.70;99.90;;;;;;5045378;28;20430;-68
2022/04/05 02:46:19;;;;;;;7.07;6.43;;;7.80;99.90;;;;;;5042043;28;20458;-68
2022/04/05 02:48:46;;;;;;;5.27;4.37;;;7.70;99.90;;;;;;5043797;28;21081;-69
2022/04/05 02:51:13;;;;;;;9.67;7.67;;;7.70;99.90;;;;;;5041969;28;20918;-69
2022/04/05 02:53:39;;;;;;;11.00;6.57;;;7.70;99.90;;;;;;5044659;28;20434;-69
2022/04/05 02:56:07;;;;;;;9.20;7.20;;;7.80;99.90;;;;;;5043523;28;20500;-68
2022/04/05 02:58:34;;;;;;;8.73;6.70;;;7.70;99.90;;;;;;5043418;28;20462;-68
2022/04/05 03:01:00;;;;;;;8.53;6.40;;;7.80;99.90;;;;;;5040261;28;20448;-68
2022/04/05 03:03:25;;;;;;;8.60;6.40;;;7.80;99.90;;;;;;5042734;28;20935;-69
2022/04/05 03:05:51;;;;;;;8.83;7.10;;;7.80;99.90;;;;;;5038423;28;20176;-68
2022/04/05 03:08:17;;;;;;;16.40;6.00;;;7.80;99.90;;;;;;5038830;28;20264;-68
2022/04/05 03:10:43;;;;;;;8.50;7.00;;;7.70;99.90;;;;;;5042976;28;20180;-68
2022/04/05 03:13:08;;;;;;;10.17;7.47;;;7.70;99.90;;;;;;5039724;28;20434;-68
2022/04/05 03:15:34;;;;;;;9.17;7.73;;;7.70;99.90;;;;;;5042635;28;20184;-68
2022/04/05 03:18:00;;;;;;;6.27;4.90;;;7.70;99.90;;;;;;5039848;28;20199;-67
2022/04/05 03:20:26;;;;;;;10.60;5.73;;;7.60;99.90;;;;;;5040874;28;20200;-68
2022/04/05 03:22:53;;;;;;;10.03;6.93;;;7.50;99.90;;;;;;5038803;28;20478;-68
2022/04/05 03:25:19;;;;;;;7.37;6.03;;;7.40;99.90;;;;;;5041487;28;20187;-68
2022/04/05 03:27:45;;;;;;;7.67;6.43;;;7.40;99.90;;;;;;5044450;28;20846;-68
2022/04/05 03:30:13;;;;;;;6.73;6.10;;;7.30;99.90;;;;;;5040977;28;20349;-68
2022/04/05 03:32:38;;;;;;;8.53;5.70;;;7.30;99.90;;;;;;5033268;28;21103;-68
2022/04/05 03:35:05;;;;;;;6.77;6.07;;;7.20;99.90;;;;;;5041714;28;20462;-68
2022/04/05 03:37:31;;;;;;;9.87;7.73;;;7.20;99.90;;;;;;5039755;28;20286;-68
2022/04/05 03:39:57;;;;;;;7.60;5.17;;;7.10;99.90;;;;;;5041363;28;20556;-68
2022/04/05 03:42:22;;;;;;;15.47;8.10;;;7.10;99.90;;;;;;5040606;28;20496;-68
2022/04/05 03:44:48;;;;;;;9.00;6.73;;;7.00;99.90;;;;;;5038067;28;20703;-68
2022/04/05 03:47:14;;;;;;;9.90;7.90;;;6.90;99.90;;;;;;5042595;28;20963;-67
2022/04/05 03:49:41;;;;;;;7.50;6.67;;;6.90;99.90;;;;;;5039684;28;20834;-68
2022/04/05 03:52:07;;;;;;;8.93;7.13;;;6.90;99.90;;;;;;5038468;28;20186;-67
2022/04/05 03:54:32;;;;;;;9.77;7.17;;;6.80;99.90;;;;;;5034947;28;20434;-68
2022/04/05 03:56:58;;;;;;;10.23;7.47;;;6.90;99.90;;;;;;5039078;28;20434;-68
2022/04/05 03:59:24;;;;;;;15.50;7.30;;;6.80;99.90;;;;;;5040015;28;20204;-68
2022/04/05 04:01:49;;;;;;;12.00;7.13;;;6.80;99.90;;;;;;5041418;28;20192;-68
2022/04/05 04:04:15;;;;;;;9.83;7.50;;;6.80;99.90;;;;;;5043830;28;20206;-67
2022/04/05 04:06:40;;;;;;;9.93;8.47;;;6.70;99.90;;;;;;5039961;28;20543;-69
2022/04/05 04:09:06;;;;;;;11.00;7.43;;;6.60;99.90;;;;;;5043366;28;20260;-67
2022/04/05 04:11:32;;;;;;;11.37;5.90;;;6.60;99.90;;;;;;5042115;28;20675;-67
2022/04/05 04:13:58;;;;;;;9.87;8.47;;;6.60;99.90;;;;;;5042939;28;20206;-67
2022/04/05 04:16:24;;;;;;;9.13;7.07;;;6.60;99.90;;;;;;5040067;28;20718;-67
2022/04/05 04:18:50;;;;;;;7.30;5.67;;;6.60;99.90;;;;;;5041202;28;20476;-68
2022/04/05 04:21:15;;;;;;;10.27;7.33;;;6.60;99.90;;;;;;5042960;28;20434;-68
2022/04/05 04:23:41;;;;;;;11.10;7.60;;;6.50;99.90;;;;;;5038968;28;20263;-67
2022/04/05 04:26:07;;;;;;;8.43;6.07;;;6.50;99.90;;;;;;5040902;28;20197;-67
2022/04/05 04:28:32;;;;;;;11.67;7.43;;;6.50;99.90;;;;;;5041331;28;20799;-68
2022/04/05 04:30:58;;;;;;;8.90;6.83;;;6.50;99.90;;;;;;5041003;28;20183;-68
2022/04/05 04:33:24;;;;;;;7.33;6.60;;;6.40;99.90;;;;;;5041307;28;20759;-67
2022/04/05 04:35:50;;;;;;;10.23;6.60;;;6.50;99.90;;;;;;5037360;28;20187;-67
2022/04/05 04:38:16;;;;;;;10.17;8.13;;;6.50;99.90;;;;;;5039415;28;20208;-67
2022/04/05 04:40:46;;;;;;;8.57;7.27;;;6.60;99.90;;;;;;5038889;28;20512;-67
2022/04/05 04:43:17;;;;;;;9.40;7.40;;;6.60;99.90;;;;;;5036821;28;20438;-67
2022/04/05 04:45:42;;;;;;;12.07;9.70;;;6.50;99.90;;;;;;5038783;28;21567;-69
2022/04/05 04:48:08;;;;;;;11.17;6.77;;;6.50;99.90;;;;;;5038695;28;20537;-68
2022/04/05 04:50:34;;;;;;;11.63;7.20;;;6.60;99.90;;;;;;5041828;28;20180;-68
2022/04/05 04:52:59;;;;;;;9.40;6.97;;;6.60;99.90;;;;;;5041249;28;20188;-68
2022/04/05 04:55:25;;;;;;;10.40;8.90;;;6.60;99.90;;;;;;5039858;28;20765;-68
2022/04/05 04:57:51;;;;;;;10.60;7.27;;;6.50;99.90;;;;;;5038713;28;20349;-68
2022/04/05 05:00:17;;;;;;;10.43;7.40;;;6.60;99.90;;;;;;5040122;28;20207;-68
2022/04/05 05:02:47;;;;;;;10.33;7.63;;;6.60;99.90;;;;;;5038805;28;20433;-67
2022/04/05 05:05:15;;;;;;;9.03;7.87;;;6.60;99.90;;;;;;5041259;28;20891;-67
2022/04/05 05:07:41;;;;;;;11.53;8.00;;;6.60;99.90;;;;;;5039685;28;20450;-68
2022/04/05 05:10:07;;;;;;;11.73;6.87;;;6.60;99.90;;;;;;5038102;28;20464;-68
2022/04/05 05:12:34;;;;;;;11.63;7.70;;;6.50;99.90;;;;;;5037134;28;20188;-68
2022/04/05 05:14:59;;;;;;;12.63;8.03;;;6.60;99.90;;;;;;5036923;28;20931;-67
2022/04/05 05:17:25;;;;;;;9.87;6.70;;;6.60;99.90;;;;;;5040767;28;20553;-67
2022/04/05 05:19:50;;;;;;;10.20;8.33;;;6.50;99.90;;;;;;5037507;28;20578;-67
2022/04/05 05:22:16;;;;;;;11.70;7.50;;;6.50;99.90;;;;;;5038614;28;20269;-67
2022/04/05 05:24:41;;;;;;;11.00;7.90;;;6.60;99.90;;;;;;5042166;28;20184;-67
2022/04/05 05:27:07;;;;;;;10.20;7.93;;;6.60;99.90;;;;;;5039632;28;20178;-67
2022/04/05 05:29:33;;;;;;;10.57;8.23;;;6.50;99.90;;;;;;5037809;28;20179;-68
2022/04/05 05:31:58;;;;;;;10.97;8.43;;;6.60;99.90;;;;;;5040846;28;20187;-68
2022/04/05 05:34:24;;;;;;;11.23;8.07;;;6.60;99.90;;;;;;5037872;28;20180;-67
2022/04/05 05:36:50;;;;;;;10.03;8.37;;;6.50;99.90;;;;;;5040251;28;20202;-67
2022/04/05 05:39:16;;;;;;;11.93;8.33;;;6.50;99.90;;;;;;5039192;28;20512;-67
2022/04/05 05:41:42;;;;;;;9.27;7.87;;;6.50;99.90;;;;;;5040758;28;20426;-67
2022/04/05 05:44:07;;;;;;;11.47;7.37;;;6.40;99.90;;;;;;5036636;28;20190;-68
2022/04/05 05:46:33;;;;;;;9.43;6.67;;;6.40;99.90;;;;;;5040318;28;20182;-68
2022/04/05 05:48:58;;;;;;;10.00;8.97;;;6.40;99.90;;;;;;5034322;28;20274;-68
2022/04/05 05:51:24;;;;;;;11.20;8.70;;;6.40;99.90;;;;;;5038673;28;20200;-69
2022/04/05 05:53:50;;;;;;;12.93;9.40;;;6.40;99.90;;;;;;5040423;28;20263;-68
2022/04/05 05:56:15;;;;;;;11.67;8.73;;;6.40;99.90;;;;;;5036545;28;20198;-68
2022/04/05 05:58:41;;;;;;;10.60;8.43;;;6.40;99.90;;;;;;5038502;28;20253;-67
2022/04/05 06:01:07;;;;;;;10.00;7.70;;;6.40;99.90;;;;;;5038419;28;20179;-69
2022/04/05 06:03:33;;;;;;;10.60;8.80;;;6.50;99.90;;;;;;5037225;28;20191;-69
2022/04/05 06:05:58;;;;;;;10.37;8.80;;;6.40;99.90;;;;;;5038611;28;20192;-69
2022/04/05 06:08:24;;;;;;;9.57;7.70;;;6.50;99.90;;;;;;5038378;28;20458;-69
2022/04/05 06:10:50;;;;;;;9.67;8.67;;;6.50;99.90;;;;;;5038572;28;20622;-69
2022/04/05 06:13:16;;;;;;;11.80;9.30;;;6.50;99.90;;;;;;5036520;28;20930;-69
2022/04/05 06:15:41;;;;;;;9.07;7.87;;;6.50;99.90;;;;;;5040477;28;20275;-69
2022/04/05 06:18:07;;;;;;;13.60;8.67;;;6.50;99.90;;;;;;5039400;28;20870;-68
2022/04/05 06:20:33;;;;;;;11.97;7.87;;;6.50;99.90;;;;;;5049237;28;20211;-69
2022/04/05 06:23:01;;;;;;;8.53;6.80;;;6.50;99.90;;;;;;5038730;28;20586;-69
2022/04/05 06:25:29;;;;;;;12.23;9.00;;;6.50;99.90;;;;;;5039050;28;20189;-70
2022/04/05 06:27:56;;;;;;;9.10;6.07;;;6.50;99.90;;;;;;5040417;28;20490;-67
2022/04/05 06:30:22;;;;;;;10.87;8.27;;;6.50;99.90;;;;;;5041704;28;20441;-70
2022/04/05 06:32:47;;;;;;;12.20;8.10;;;6.50;99.90;;;;;;5041065;28;20805;-70
2022/04/05 06:35:13;;;;;;;13.13;8.67;;;6.50;99.90;;;;;;5036345;28;20759;-70
2022/04/05 06:37:43;;;;;;;13.60;7.47;;;6.50;99.90;;;;;;5036993;28;20661;-71
2022/04/05 06:40:10;;;;;;;7.40;6.70;;;6.50;99.90;;;;;;5038604;28;20478;-70
2022/04/05 06:42:41;;;;;;;8.33;6.80;;;6.50;99.90;;;;;;5056326;22;20492;-67
2022/04/05 06:45:08;;;;;;;10.20;8.10;;;6.50;99.90;;;;;;5048526;28;20445;-68
2022/04/05 06:47:34;;;;;;;10.10;7.63;;;6.50;99.90;;;;;;5053287;28;20435;-69
2022/04/05 06:49:59;;;;;;;11.10;9.10;;;6.50;99.90;;;;;;5052923;28;21148;-70
2022/04/05 06:52:25;;;;;;;14.43;8.30;;;6.60;99.90;;;;;;5053506;28;20216;-69
2022/04/05 06:54:50;;;;;;;17.03;8.57;;;6.60;99.90;;;;;;5048994;28;20195;-70
2022/04/05 06:57:16;;;;;;;10.33;8.13;;;6.60;99.90;;;;;;5058561;28;20183;-68
2022/04/05 06:59:42;;;;;;;9.23;7.37;;;6.60;99.90;;;;;;5051906;28;20268;-69
2022/04/05 07:02:09;;;;;;;11.10;7.20;;;6.70;99.90;;;;;;5047425;28;20209;-70
2022/04/05 07:04:36;;;;;;;11.07;9.03;;;6.70;99.90;;;;;;5051574;28;20183;-69
2022/04/05 07:07:01;;;;;;;8.80;7.63;;;6.70;99.90;;;;;;5050454;28;20444;-70
2022/04/05 07:09:27;;;;;;;10.37;7.87;;;6.80;99.90;;;;;;5050203;28;20437;-70
2022/04/05 07:11:53;;;;;;;12.80;7.90;;;6.90;99.90;;;;;;5048908;28;20212;-69
2022/04/05 07:14:18;;;;;;;11.00;7.93;;;6.90;99.90;;;;;;5050138;28;20229;-68
2022/04/05 07:16:44;;;;;;;12.37;8.40;;;7.00;99.90;;;;;;5052272;28;20219;-68
2022/04/05 07:19:10;;;;;;;11.00;7.50;;;7.00;99.90;;;;;;5055214;28;20222;-68
2022/04/05 07:21:35;;;;;;;10.30;7.63;;;7.00;99.90;;;;;;5054649;28;20222;-69
2022/04/05 07:24:01;;;;;;;9.60;6.70;;;7.00;99.90;;;;;;5049391;28;20201;-68
2022/04/05 07:26:26;;;;;;;9.23;7.13;;;7.00;99.90;;;;;;5052709;28;20969;-67
2022/04/05 07:28:52;;;;;;;12.27;8.17;;;7.00;99.90;;;;;;5056212;28;20222;-68
2022/04/05 07:31:18;;;;;;;9.03;6.80;;;7.00;99.90;;;;;;5048556;28;20215;-68
2022/04/05 07:33:43;;;;;;;11.73;8.27;;;7.00;99.90;;;;;;5049126;28;20195;-67
2022/04/05 07:36:09;;;;;;;9.60;7.83;;;6.90;99.90;;;;;;5051260;28;20187;-68
2022/04/05 07:38:34;;;;;;;8.33;7.37;;;6.90;99.90;;;;;;5049374;28;20179;-69
2022/04/05 07:41:00;;;;;;;11.10;8.37;;;7.00;99.90;;;;;;5045982;28;20250;-68
2022/04/05 07:43:28;;;;;;;13.60;8.93;;;7.00;99.90;;;;;;5049896;28;20229;-68
2022/04/05 07:45:54;;;;;;;12.80;9.00;;;7.00;99.90;;;;;;5048872;28;20264;-69
2022/04/05 07:48:22;;;;;;;11.40;7.63;;;6.90;99.90;;;;;;5050238;28;20438;-70
2022/04/05 07:50:48;;;;;;;10.30;7.77;;;6.90;99.90;;;;;;5051818;28;20860;-69
2022/04/05 07:53:14;;;;;;;10.13;7.20;;;6.90;99.90;;;;;;5049620;28;21025;-70
2022/04/05 07:55:40;;;;;;;7.07;6.00;;;6.90;99.90;;;;;;5050729;28;21294;-69
2022/04/05 07:58:06;;;;;;;7.90;6.63;;;7.00;99.90;;;;;;5050745;28;20446;-69
2022/04/05 08:00:32;;;;;;;10.77;7.80;;;7.00;99.90;;;;;;5054145;28;20294;-68
2022/04/05 08:02:58;;;;;;;8.17;7.27;;;7.00;99.90;;;;;;5053500;28;20213;-69
2022/04/05 08:05:24;;;;;;;9.67;8.40;;;7.10;99.90;;;;;;5050374;28;20442;-69
2022/04/05 08:07:51;;;;;;;10.93;8.83;;;7.10;99.90;;;;;;5050455;28;20443;-71
2022/04/05 08:10:17;;;;;;;9.70;7.40;;;7.10;99.90;;;;;;5052424;28;20448;-70
2022/04/05 08:12:45;;;;;;;9.40;7.20;;;7.10;99.90;;;;;;5049429;28;20477;-69
2022/04/05 08:15:13;;;;;;;7.83;6.30;;;7.20;99.90;;;;;;5060511;28;20464;-68
2022/04/05 08:17:39;;;;;;;6.73;6.03;;;7.20;99.90;;;;;;5050804;28;21075;-69
2022/04/05 08:20:06;;;;;;;13.53;7.33;;;7.20;99.90;;;;;;5051193;28;20526;-68
2022/04/05 08:22:31;;;;;;;11.00;8.17;;;7.20;99.90;;;;;;5053391;28;20276;-69
2022/04/05 08:24:57;;;;;;;6.80;6.03;;;7.10;99.90;;;;;;5058687;28;21124;-68
2022/04/05 08:27:23;;;;;;;13.70;8.27;;;7.20;99.90;;;;;;5056509;28;20175;-69
2022/04/05 08:29:49;;;;;;;12.03;7.47;;;7.20;99.90;;;;;;5057478;28;20275;-72
2022/04/05 08:32:15;;;;;;;12.33;8.43;;;7.30;99.90;;;;;;5057878;28;20203;-69
2022/04/05 08:34:42;;;;;;;11.83;8.70;;;7.20;99.90;;;;;;5056550;28;21332;-70
2022/04/05 08:37:10;;;;;;;9.63;6.90;;;7.30;99.90;;;;;;5052354;28;20188;-70
2022/04/05 08:39:36;;;;;;;11.47;8.30;;;7.30;99.90;;;;;;5057673;28;20463;-70
2022/04/05 08:42:04;;;;;;;10.70;6.90;;;7.30;99.90;;;;;;5053125;28;21046;-70
2022/04/05 08:44:30;;;;;;;9.07;7.23;;;7.30;99.90;;;;;;5056240;28;20187;-69
2022/04/05 08:46:59;;;;;;;14.20;8.83;;;7.30;99.90;;;;;;5057734;28;20865;-69
2022/04/05 08:49:25;;;;;;;8.47;6.33;;;7.30;99.90;;;;;;5055253;28;20959;-69
2022/04/05 08:51:51;;;;;;;10.60;6.53;;;7.40;99.90;;;;;;5054745;28;20493;-70
2022/04/05 08:54:16;;;;;;;14.27;8.13;;;7.40;99.90;;;;;;5059714;28;20464;-69
2022/04/05 08:56:42;;;;;;;8.53;6.50;;;7.40;99.90;;;;;;5053009;28;20222;-69
2022/04/05 08:59:08;;;;;;;11.20;8.10;;;7.40;99.90;;;;;;5052997;28;20210;-72
2022/04/05 09:01:34;;;;;;;10.50;6.83;;;7.50;99.90;;;;;;5052662;28;20202;-70
2022/04/05 09:04:00;;;;;;;9.67;7.70;;;7.50;99.90;;;;;;5055156;28;20180;-75
2022/04/05 09:06:35;;;;;;;10.03;7.83;;;7.50;99.90;;;;;;5058816;28;20467;-72
2022/04/05 09:09:12;;;;;;;8.57;7.43;;;7.60;99.90;;;;;;5054532;28;20521;-72
2022/04/05 09:11:56;;;;;;;10.07;7.93;;;7.60;99.90;;;;;;5062482;28;20822;-73
2022/04/05 09:14:23;;;;;;;11.53;8.37;;;7.60;99.90;;;;;;5057596;28;20968;-73
2022/04/05 09:17:20;;;;;;;9.87;7.63;;;7.70;99.90;;;;;;5052164;28;20426;-72
2022/04/05 09:19:46;;;;;;;8.70;7.77;;;7.70;99.90;;;;;;5054052;28;20497;-73
2022/04/05 09:22:12;;;;;;;9.60;7.03;;;7.70;99.90;;;;;;5057759;28;20448;-73
2022/04/05 09:24:40;;;;;;;9.73;7.57;;;7.70;99.90;;;;;;5053805;28;20174;-71
2022/04/05 09:27:06;;;;;;;9.50;7.53;;;7.80;99.90;;;;;;5058782;28;20623;-71
2022/04/05 09:29:51;;;;;;;11.03;7.80;;;7.80;99.90;;;;;;5057877;28;20814;-66
2022/04/05 09:32:37;;;;;;;7.83;7.00;;;7.80;99.90;;;;;;5047789;28;20485;-73
2022/04/05 09:35:06;;;;;;;10.53;7.80;;;7.80;99.90;;;;;;5056042;28;20453;-71
2022/04/05 09:37:36;;;;;;;9.63;7.47;;;7.70;99.90;;;;;;5050877;28;20432;-69
2022/04/05 09:40:33;;;;;;;10.77;6.60;;;7.80;99.90;;;;;;5046468;28;20465;-70
2022/04/05 09:43:04;;;;;;;8.13;6.90;;;7.80;99.90;;;;;;5047771;28;20462;-69
2022/04/05 09:45:52;;;;;;;10.07;7.93;;;7.80;99.90;;;;;;5053796;28;20801;-69
2022/04/05 09:48:23;;;;;;;8.53;7.40;;;7.90;99.90;;;;;;5055610;28;20482;-69
2022/04/05 09:51:19;;;;;;;9.10;6.87;;;7.90;99.90;;;;;;5052041;28;20505;-67
2022/04/05 09:53:47;;;;;;;12.30;7.83;;;8.00;99.90;;;;;;5041193;28;20784;-67
2022/04/05 09:56:24;;;;;;;8.50;7.70;;;8.00;99.90;;;;;;5059821;28;20520;-68
2022/04/05 09:58:55;;;;;;;10.67;8.20;;;8.00;99.90;;;;;;5051761;28;20473;-69
2022/04/05 10:01:26;;;;;;;13.47;6.83;;;8.00;99.90;;;;;;5054656;28;20450;-69
2022/04/05 10:04:10;;;;;;;15.07;7.47;;;8.00;99.90;;;;;;5054396;28;20814;-69
2022/04/05 10:06:46;;;;;;;9.20;7.07;;;8.00;99.90;;;;;;5049240;28;20483;-68
2022/04/05 10:09:17;;;;;;;10.23;7.00;;;8.00;99.90;;;;;;5046003;28;20436;-67
2022/04/05 10:11:43;;;;;;;9.27;6.80;;;8.10;99.90;;;;;;5052274;28;20433;-71
2022/04/05 10:14:13;;;;;;;7.17;6.37;;;8.10;99.90;;;;;;5051907;28;20440;-69
2022/04/05 10:16:39;;;;;;;9.40;7.30;;;8.20;99.90;;;;;;5050614;28;20962;-69
2022/04/05 10:19:10;;;;;;;10.50;7.77;;;8.30;99.90;;;;;;5055387;28;20454;-67
2022/04/05 10:21:37;;;;;;;9.83;7.50;;;8.20;99.90;;;;;;5058535;28;20939;-69
2022/04/05 10:24:08;;;;;;;11.93;8.30;;;8.30;99.90;;;;;;5058112;28;20461;-69
2022/04/05 10:26:36;;;;;;;8.47;7.20;;;8.30;99.90;;;;;;5058055;28;20457;-69
2022/04/05 10:29:19;;;;;;;9.93;8.20;;;8.40;99.90;;;;;;5057151;28;20867;-70
2022/04/05 10:31:55;;;;;;;9.77;7.97;;;8.40;99.90;;;;;;5059608;28;20456;-68
2022/04/05 10:34:50;;;;;;;10.03;8.37;;;8.50;99.90;;;;;;5062389;28;20441;-69
2022/04/05 10:37:31;;;;;;;8.73;6.47;;;8.50;99.90;;;;;;5059871;28;20421;-69
2022/04/05 10:39:57;;;;;;;11.13;7.30;;;8.40;99.90;;;;;;5058109;28;20464;-69
2022/04/05 10:42:25;;;;;;;9.50;7.07;;;8.40;99.90;;;;;;5056709;28;21021;-69
2022/04/05 10:44:53;;;;;;;10.60;7.77;;;8.40;99.90;;;;;;5057019;28;20798;-71
2022/04/05 10:47:19;;;;;;;10.00;7.93;;;8.50;99.90;;;;;;5058832;28;20456;-70
2022/04/05 10:49:49;;;;;;;9.40;7.33;;;8.50;99.90;;;;;;5058218;28;20825;-69
2022/04/05 10:52:25;;;;;;;8.43;7.57;;;8.50;99.90;;;;;;5058403;28;20450;-70
2022/04/05 10:55:13;;;;;;;8.33;6.33;;;8.40;99.90;;;;;;5054834;28;20437;-70
2022/04/05 10:57:39;;;;;;;13.37;8.33;;;8.40;99.90;;;;;;5055231;28;20448;-69
2022/04/05 11:00:11;;;;;;;8.47;7.03;;;8.40;99.90;;;;;;5051902;28;20457;-68
2022/04/05 11:02:43;;;;;;;8.30;6.20;;;8.50;99.90;;;;;;5050790;28;20465;-67
2022/04/05 11:05:15;;;;;;;13.17;7.47;;;8.50;99.90;;;;;;5053420;28;20429;-68
2022/04/05 11:07:52;;;;;;;9.47;6.50;;;8.60;99.90;;;;;;5057961;28;20436;-69
2022/04/05 11:10:28;;;;;;;8.03;6.90;;;8.60;99.90;;;;;;5056625;28;20429;-69
2022/04/05 11:13:10;;;;;;;11.23;8.40;;;8.60;99.90;;;;;;5053794;28;20529;-69
2022/04/05 11:15:47;;;;;;;7.87;6.10;;;8.60;99.90;;;;;;5059473;28;20430;-68
2022/04/05 11:18:21;;;;;;;11.07;7.30;;;8.70;99.90;;;;;;5055603;28;20854;-68
2022/04/05 11:20:49;;;;;;;8.70;7.13;;;8.70;99.90;;;;;;5058090;28;20468;-70
2022/04/05 11:23:17;;;;;;;9.43;6.50;;;8.70;99.90;;;;;;5058653;28;20428;-69
2022/04/05 11:25:43;;;;;;;10.97;7.07;;;8.70;99.90;;;;;;5058793;28;20491;-69
2022/04/05 11:28:16;;;;;;;10.20;7.27;;;8.80;99.90;;;;;;5053792;28;20950;-69
2022/04/05 11:30:56;;;;;;;12.40;7.70;;;8.90;99.90;;;;;;5055952;28;20648;-69
2022/04/05 11:33:43;;;;;;;9.60;7.80;;;9.00;99.90;;;;;;5055320;28;20436;-68
2022/04/05 11:36:14;;;;;;;11.23;8.17;;;9.00;99.90;;;;;;5057144;28;20434;-68
2022/04/05 11:38:51;;;;;;;13.17;7.70;;;9.00;99.90;;;;;;5055248;28;20901;-68
2022/04/05 11:41:22;;;;;;;10.73;7.70;;;9.00;99.90;;;;;;5055760;28;20468;-67
2022/04/05 11:43:51;;;;;;;11.50;6.07;;;9.10;99.90;;;;;;5056100;28;20751;-70
2022/04/05 11:46:25;;;;;;;12.33;7.53;;;9.10;99.90;;;;;;5058483;28;20952;-68
2022/04/05 11:48:53;;;;;;;9.67;7.30;;;9.10;99.90;;;;;;5053311;28;20425;-69
2022/04/05 11:51:21;;;;;;;9.20;7.47;;;9.20;99.90;;;;;;5051546;28;20454;-70
2022/04/05 11:53:47;;;;;;;7.63;5.67;;;9.20;99.90;;;;;;5053302;28;20441;-69
2022/04/05 11:56:20;;;;;;;9.80;7.30;;;9.10;99.90;;;;;;5056904;28;20433;-69
2022/04/05 11:58:56;;;;;;;13.27;8.30;;;9.10;99.90;;;;;;5055801;28;21155;-68
2022/04/05 12:01:24;;;;;;;7.90;6.50;;;9.20;99.90;;;;;;5055636;28;20532;-69
2022/04/05 12:04:01;;;;;;;8.67;7.17;;;9.10;99.90;;;;;;5058175;28;20538;-70
2022/04/05 12:06:34;;;;;;;10.03;7.87;;;9.20;99.90;;;;;;5054412;28;20902;-72
2022/04/05 12:09:04;;;;;;;8.53;6.67;;;9.30;99.90;;;;;;5051797;28;20741;-71
2022/04/05 12:11:32;;;;;;;11.40;6.30;;;9.40;99.90;;;;;;5057167;28;20445;-72
2022/04/05 12:14:25;;;;;;;8.77;7.77;;;9.40;99.90;;;;;;5056221;28;20438;-73
2022/04/05 12:16:54;;;;;;;11.23;6.00;;;9.50;99.90;;;;;;5055498;28;20470;-71
2022/04/05 12:19:33;;;;;;;9.30;7.23;;;9.50;99.90;;;;;;5052961;28;20458;-71
2022/04/05 12:22:01;;;;;;;9.10;7.20;;;9.50;99.90;;;;;;5052319;28;20468;-71
2022/04/05 12:24:28;;;;;;;10.97;6.43;;;9.40;99.90;;;;;;5055198;28;20421;-71
2022/04/05 12:26:58;;;;;;;10.40;7.53;;;9.40;99.90;;;;;;5054659;28;20912;-71
2022/04/05 12:29:28;;;;;;;16.10;7.80;;;9.40;99.90;;;;;;5051600;28;20428;-71
2022/04/05 12:31:55;;;;;;;8.80;6.83;;;9.30;99.90;;;;;;5052732;28;20754;-71
2022/04/05 12:34:21;;;;;;;9.87;6.57;;;9.30;99.90;;;;;;5048334;28;20465;-71
2022/04/05 12:36:57;;;;;;;8.80;4.93;;;9.30;99.90;;;;;;5050739;28;20565;-71
2022/04/05 12:39:26;;;;;;;7.07;6.10;;;9.30;99.90;;;;;;5050441;28;20461;-71
2022/04/05 12:41:54;;;;;;;9.23;7.40;;;9.30;99.90;;;;;;5050539;28;20485;-71
2022/04/05 12:44:22;;;;;;;9.83;7.20;;;9.40;99.90;;;;;;5050679;28;20423;-71
2022/04/05 12:46:49;;;;;;;13.00;7.37;;;9.40;99.90;;;;;;5050951;28;20438;-72
2022/04/05 12:49:21;;;;;;;9.77;7.83;;;9.50;99.90;;;;;;5056142;28;20428;-71
2022/04/05 12:51:48;;;;;;;8.60;7.33;;;9.50;99.90;;;;;;5052164;28;20493;-71
2022/04/05 12:54:32;;;;;;;8.40;6.47;;;9.60;99.90;;;;;;5057155;28;20954;-71
2022/04/05 12:57:22;;;;;;;10.87;7.00;;;9.70;99.90;;;;;;5055439;28;20520;-71